Time,TemperatureF,DewpointF,PressureIn,WindDirection,WindDirectionDegrees,WindSpeedMPH,WindSpeedGustMPH,Humidity,HourlyPrecipIn,Conditions,Clouds,dailyrainin,SolarRadiationWatts/m^2,SoftwareType,DateUTC
2013-05-29 00:01:00,52.0,49.5,29.75,WSW,258,0.0,1.0,91,0.00,,,0.04,0,Wunderground v.1.15,2013-05-29 07:01:00,
2013-05-29 00:07:00,52.0,49.5,29.75,WSW,258,0.0,0.0,91,0.00,,,0.00,0,Wunderground v.1.15,2013-05-29 07:07:00,
2013-05-29 00:12:00,52.0,49.7,29.74,WSW,258,0.0,0.0,92,0.00,,,0.00,0,Wunderground v.1.15,2013-05-29 07:12:00,
2013-05-29 00:17:00,52.0,49.7,29.74,WSW,258,0.0,0.0,92,0.00,,,0.00,0,Wunderground v.1.15,2013-05-29 07:17:00,
2013-05-29 00:22:00,51.9,49.6,29.74,WSW,258,0.0,1.0,92,0.00,,,0.00,0,Wunderground v.1.15,2013-05-29 07:22:00,
2013-05-29 00:27:00,51.9,49.6,29.74,WSW,258,0.0,1.0,92,0.00,,,0.00,0,Wunderground v.1.15,2013-05-29 07:27:00,
2013-05-29 00:34:00,51.7,49.5,29.74,WSW,258,0.0,0.0,92,0.00,,,0.00,0,Wunderground v.1.15,2013-05-29 07:34:00,
2013-05-29 00:39:00,51.6,49.6,29.73,WSW,258,0.0,0.0,93,0.00,,,0.01,0,Wunderground v.1.15,2013-05-29 07:39:00,
2013-05-29 00:44:00,51.4,49.4,29.73,WSW,258,0.0,0.0,93,0.16,,,0.02,0,Wunderground v.1.15,2013-05-29 07:44:00,
2013-05-29 00:49:00,51.4,49.4,29.74,WSW,258,0.0,0.0,93,0.14,,,0.04,0,Wunderground v.1.15,2013-05-29 07:49:00,
2013-05-29 00:54:00,51.3,49.6,29.74,WSW,258,0.0,0.0,94,0.13,,,0.05,0,Wunderground v.1.15,2013-05-29 07:54:00,
2013-05-29 00:59:00,51.4,49.7,29.74,WSW,258,0.0,0.0,94,0.17,,,0.06,0,Wunderground v.1.15,2013-05-29 07:59:00,
2013-05-29 01:05:00,51.3,49.6,29.73,WSW,258,0.0,1.0,94,0.16,,,0.08,0,Wunderground v.1.15,2013-05-29 08:05:00,
2013-05-29 01:11:00,51.3,49.6,29.73,WSW,258,0.0,0.0,94,0.12,,,0.09,0,Wunderground v.1.15,2013-05-29 08:11:00,
2013-05-29 01:16:00,51.1,49.4,29.73,WSW,258,0.0,0.0,94,0.10,,,0.10,0,Wunderground v.1.15,2013-05-29 08:16:00,
2013-05-29 01:22:00,51.0,49.3,29.73,WSW,258,0.0,0.0,94,0.08,,,0.10,0,Wunderground v.1.15,2013-05-29 08:22:00,
2013-05-29 01:27:00,51.0,49.3,29.73,WSW,258,0.0,1.0,94,0.08,,,0.11,0,Wunderground v.1.15,2013-05-29 08:27:00,
2013-05-29 01:32:00,51.0,49.6,29.72,WSW,258,0.0,1.0,95,0.11,,,0.12,0,Wunderground v.1.15,2013-05-29 08:32:00,
2013-05-29 01:37:00,50.8,49.4,29.72,WSW,258,0.0,1.0,95,0.14,,,0.14,0,Wunderground v.1.15,2013-05-29 08:37:00,
2013-05-29 01:42:00,50.8,49.4,29.72,WSW,258,0.0,0.0,95,0.11,,,0.14,0,Wunderground v.1.15,2013-05-29 08:42:00,
2013-05-29 01:48:00,50.8,49.4,29.71,WSW,258,0.0,1.0,95,0.09,,,0.15,0,Wunderground v.1.15,2013-05-29 08:48:00,
2013-05-29 01:53:00,50.8,49.4,29.71,WSW,258,0.0,0.0,95,0.06,,,0.15,0,Wunderground v.1.15,2013-05-29 08:53:00,
2013-05-29 01:58:00,50.7,49.3,29.71,WSW,258,0.0,0.0,95,0.06,,,0.16,0,Wunderground v.1.15,2013-05-29 08:58:00,
2013-05-29 02:03:00,50.5,49.1,29.70,WSW,258,0.0,1.0,95,0.06,,,0.16,0,Wunderground v.1.15,2013-05-29 09:03:00,
2013-05-29 02:08:00,50.5,49.1,29.70,WSW,258,0.0,2.0,95,0.04,,,0.16,0,Wunderground v.1.15,2013-05-29 09:08:00,
2013-05-29 02:14:00,50.4,49.0,29.70,WSW,258,0.0,0.0,95,0.04,,,0.17,0,Wunderground v.1.15,2013-05-29 09:14:00,
2013-05-29 02:19:00,50.4,49.0,29.70,WSW,258,0.0,0.0,95,0.07,,,0.18,0,Wunderground v.1.15,2013-05-29 09:19:00,
2013-05-29 02:24:00,50.4,49.0,29.70,WSW,258,0.0,0.0,95,0.07,,,0.18,0,Wunderground v.1.15,2013-05-29 09:24:00,
2013-05-29 02:29:00,50.4,49.3,29.69,WSW,258,0.0,0.0,96,0.06,,,0.18,0,Wunderground v.1.15,2013-05-29 09:29:00,
2013-05-29 02:34:00,50.5,49.4,29.69,WSW,258,0.0,0.0,96,0.04,,,0.18,0,Wunderground v.1.15,2013-05-29 09:34:00,
2013-05-29 02:40:00,50.5,49.4,29.69,WSW,258,0.0,0.0,96,0.00,,,0.19,0,Wunderground v.1.15,2013-05-29 09:40:00,
2013-05-29 02:45:00,50.7,49.6,29.69,WSW,258,0.0,1.0,96,0.00,,,0.19,0,Wunderground v.1.15,2013-05-29 09:45:00,
2013-05-29 02:50:00,50.7,49.6,29.68,WSW,258,0.0,0.0,96,0.00,,,0.19,0,Wunderground v.1.15,2013-05-29 09:50:00,
2013-05-29 02:55:00,50.7,49.6,29.68,WSW,258,0.0,1.0,96,0.00,,,0.19,0,Wunderground v.1.15,2013-05-29 09:55:00,
2013-05-29 03:00:00,50.5,49.4,29.68,WSW,258,1.0,1.0,96,0.00,,,0.19,0,Wunderground v.1.15,2013-05-29 10:00:00,
2013-05-29 03:05:00,50.5,49.4,29.68,WSW,258,0.0,2.0,96,0.00,,,0.19,0,Wunderground v.1.15,2013-05-29 10:05:00,
2013-05-29 03:11:00,50.7,49.6,29.68,WSW,258,0.0,0.0,96,0.00,,,0.19,0,Wunderground v.1.15,2013-05-29 10:11:00,
2013-05-29 03:16:00,50.7,49.6,29.67,WSW,258,0.0,2.0,96,0.00,,,0.19,0,Wunderground v.1.15,2013-05-29 10:16:00,
2013-05-29 03:21:00,50.5,49.4,29.67,WSW,258,1.0,1.0,96,0.00,,,0.20,0,Wunderground v.1.15,2013-05-29 10:21:00,
2013-05-29 03:26:00,50.5,49.4,29.67,WSW,258,0.0,1.0,96,0.00,,,0.20,0,Wunderground v.1.15,2013-05-29 10:26:00,
2013-05-29 03:32:00,50.5,49.4,29.67,WSW,258,0.0,1.0,96,0.00,,,0.20,0,Wunderground v.1.15,2013-05-29 10:32:00,
2013-05-29 03:37:00,50.5,49.4,29.67,WSW,258,0.0,1.0,96,0.00,,,0.20,0,Wunderground v.1.15,2013-05-29 10:37:00,
2013-05-29 03:42:00,50.5,49.4,29.67,WSW,258,0.0,0.0,96,0.00,,,0.20,0,Wunderground v.1.15,2013-05-29 10:42:00,
2013-05-29 03:47:00,50.7,49.6,29.67,WSW,258,0.0,0.0,96,0.00,,,0.20,0,Wunderground v.1.15,2013-05-29 10:47:00,
2013-05-29 03:52:00,50.7,49.6,29.66,WSW,258,0.0,1.0,96,0.00,,,0.20,0,Wunderground v.1.15,2013-05-29 10:52:00,
2013-05-29 03:58:00,50.5,49.4,29.66,WSW,258,0.0,1.0,96,0.00,,,0.21,0,Wunderground v.1.15,2013-05-29 10:58:00,
2013-05-29 04:03:00,50.5,49.4,29.66,WSW,258,0.0,2.0,96,0.00,,,0.21,0,Wunderground v.1.15,2013-05-29 11:03:00,
2013-05-29 04:08:00,50.5,49.4,29.66,WSW,258,0.0,2.0,96,0.07,,,0.22,0,Wunderground v.1.15,2013-05-29 11:08:00,
2013-05-29 04:13:00,50.5,49.4,29.65,WSW,258,0.0,0.0,96,0.06,,,0.22,0,Wunderground v.1.15,2013-05-29 11:13:00,
2013-05-29 04:18:00,50.5,49.4,29.65,WSW,258,0.0,0.0,96,0.04,,,0.22,0,Wunderground v.1.15,2013-05-29 11:18:00,
2013-05-29 04:23:00,50.5,49.4,29.65,WSW,258,0.0,0.0,96,0.00,,,0.22,0,Wunderground v.1.15,2013-05-29 11:23:00,
2013-05-29 04:28:00,50.5,49.4,29.65,WSW,258,0.0,0.0,96,0.00,,,0.23,0,Wunderground v.1.15,2013-05-29 11:28:00,
2013-05-29 04:34:00,50.5,49.4,29.65,WSW,258,0.0,2.0,96,0.11,,,0.24,0,Wunderground v.1.15,2013-05-29 11:34:00,
2013-05-29 04:39:00,50.7,49.6,29.65,WSW,258,0.0,2.0,96,0.10,,,0.25,0,Wunderground v.1.15,2013-05-29 11:39:00,
2013-05-29 04:44:00,50.7,49.6,29.65,WSW,258,0.0,0.0,96,0.10,,,0.26,0,Wunderground v.1.15,2013-05-29 11:44:00,
2013-05-29 04:49:00,50.7,49.6,29.65,WSW,258,0.0,0.0,96,0.07,,,0.26,0,Wunderground v.1.15,2013-05-29 11:49:00,
2013-05-29 04:54:00,50.5,49.4,29.65,WSW,258,0.0,1.0,96,0.04,,,0.26,0,Wunderground v.1.15,2013-05-29 11:54:00,
2013-05-29 04:59:00,50.7,49.6,29.65,WSW,258,0.0,2.0,96,0.04,,,0.27,0,Wunderground v.1.15,2013-05-29 11:59:00,
2013-05-29 05:04:00,50.7,49.6,29.65,WSW,258,0.0,2.0,96,0.04,,,0.27,0,Wunderground v.1.15,2013-05-29 12:04:00,
2013-05-29 05:09:00,50.7,49.6,29.65,WSW,258,1.0,2.0,96,0.04,,,0.27,0,Wunderground v.1.15,2013-05-29 12:09:00,
2013-05-29 05:14:00,50.7,49.6,29.64,WSW,258,0.0,2.0,96,0.04,,,0.27,0,Wunderground v.1.15,2013-05-29 12:14:00,
2013-05-29 05:20:00,50.7,49.6,29.65,WSW,258,0.0,0.0,96,0.00,,,0.27,0,Wunderground v.1.15,2013-05-29 12:20:00,
2013-05-29 05:25:00,50.7,49.6,29.65,WSW,258,0.0,0.0,96,0.00,,,0.27,0,Wunderground v.1.15,2013-05-29 12:25:00,
2013-05-29 05:30:00,50.8,49.7,29.65,WSW,258,0.0,1.0,96,0.00,,,0.27,0,Wunderground v.1.15,2013-05-29 12:30:00,
2013-05-29 05:35:00,50.7,49.6,29.65,WSW,258,0.0,1.0,96,0.00,,,0.27,0,Wunderground v.1.15,2013-05-29 12:35:00,
2013-05-29 05:40:00,50.7,49.6,29.65,WSW,258,0.0,0.0,96,0.00,,,0.27,0,Wunderground v.1.15,2013-05-29 12:40:00,
2013-05-29 05:46:00,50.8,49.7,29.65,WSW,258,1.0,2.0,96,0.00,,,0.28,0,Wunderground v.1.15,2013-05-29 12:46:00,
2013-05-29 05:51:00,50.8,49.7,29.65,WSW,258,0.0,1.0,96,0.00,,,0.28,5,Wunderground v.1.15,2013-05-29 12:51:00,
2013-05-29 05:56:00,50.8,49.7,29.65,WSW,258,0.0,1.0,96,0.05,,,0.29,7,Wunderground v.1.15,2013-05-29 12:56:00,
2013-05-29 06:01:00,50.8,49.7,29.65,WSW,258,0.0,3.0,96,0.05,,,0.29,5,Wunderground v.1.15,2013-05-29 13:01:00,
2013-05-29 06:06:00,51.0,49.9,29.65,WSW,258,1.0,3.0,96,0.06,,,0.30,7,Wunderground v.1.15,2013-05-29 13:06:00,
2013-05-29 06:12:00,51.1,50.0,29.65,WSW,258,2.0,2.0,96,0.06,,,0.30,5,Wunderground v.1.15,2013-05-29 13:12:00,
2013-05-29 06:17:00,51.1,50.0,29.66,WSW,258,1.0,2.0,96,0.06,,,0.31,5,Wunderground v.1.15,2013-05-29 13:17:00,
2013-05-29 06:22:00,51.0,49.9,29.66,WSW,258,1.0,2.0,96,0.11,,,0.32,5,Wunderground v.1.15,2013-05-29 13:22:00,
2013-05-29 06:27:00,51.0,49.9,29.66,WSW,258,1.0,2.0,96,0.11,,,0.33,7,Wunderground v.1.15,2013-05-29 13:27:00,
2013-05-29 06:32:00,51.0,49.9,29.66,WSW,258,1.0,1.0,96,0.18,,,0.35,11,Wunderground v.1.15,2013-05-29 13:32:00,
2013-05-29 06:38:00,51.0,49.9,29.66,WSW,258,0.0,1.0,96,0.19,,,0.36,18,Wunderground v.1.15,2013-05-29 13:38:00,
2013-05-29 06:43:00,50.8,49.7,29.66,WSW,258,1.0,3.0,96,0.11,,,0.37,25,Wunderground v.1.15,2013-05-29 13:43:00,
2013-05-29 06:48:00,50.8,49.7,29.66,WSW,258,1.0,3.0,96,0.08,,,0.37,33,Wunderground v.1.15,2013-05-29 13:48:00,
2013-05-29 06:53:00,51.0,49.9,29.66,North,355,1.0,3.0,96,0.05,,,0.37,54,Wunderground v.1.15,2013-05-29 13:53:00,
2013-05-29 06:58:00,51.0,49.9,29.66,NE,40,2.0,4.0,96,0.04,,,0.38,47,Wunderground v.1.15,2013-05-29 13:58:00,
2013-05-29 07:04:00,51.1,50.0,29.66,NE,40,2.0,2.0,96,0.04,,,0.38,46,Wunderground v.1.15,2013-05-29 14:04:00,
2013-05-29 07:09:00,51.1,49.7,29.66,NW,304,1.0,3.0,95,0.04,,,0.38,63,Wunderground v.1.15,2013-05-29 14:09:00,
2013-05-29 07:14:00,51.3,49.9,29.66,NW,304,1.0,2.0,95,0.04,,,0.39,83,Wunderground v.1.15,2013-05-29 14:14:00,
2013-05-29 07:19:00,51.4,50.3,29.66,NW,304,1.0,2.0,96,0.04,,,0.39,83,Wunderground v.1.15,2013-05-29 14:19:00,
2013-05-29 07:24:00,51.6,50.2,29.66,NW,304,0.0,1.0,95,0.04,,,0.39,95,Wunderground v.1.15,2013-05-29 14:24:00,
2013-05-29 07:30:00,51.6,50.2,29.67,NNE,27,1.0,1.0,95,0.00,,,0.39,65,Wunderground v.1.15,2013-05-29 14:30:00,
2013-05-29 07:35:00,51.6,50.2,29.66,NE,43,1.0,2.0,95,0.00,,,0.40,53,Wunderground v.1.15,2013-05-29 14:35:00,
2013-05-29 07:40:00,51.4,50.0,29.67,NW,321,2.0,2.0,95,0.00,,,0.40,53,Wunderground v.1.15,2013-05-29 14:40:00,
2013-05-29 07:45:00,51.4,50.0,29.67,North,355,2.0,3.0,95,0.05,,,0.41,53,Wunderground v.1.15,2013-05-29 14:45:00,
2013-05-29 07:50:00,51.4,50.0,29.67,North,355,1.0,1.0,95,0.05,,,0.41,56,Wunderground v.1.15,2013-05-29 14:50:00,
2013-05-29 07:56:00,51.6,50.2,29.67,North,355,1.0,2.0,95,0.04,,,0.41,47,Wunderground v.1.15,2013-05-29 14:56:00,
2013-05-29 08:01:00,51.6,50.2,29.67,North,355,0.0,4.0,95,0.04,,,0.42,51,Wunderground v.1.15,2013-05-29 15:01:00,
2013-05-29 08:06:00,51.7,50.3,29.67,NE,43,0.0,4.0,95,0.04,,,0.42,53,Wunderground v.1.15,2013-05-29 15:06:00,
2013-05-29 08:11:00,51.7,50.3,29.68,NW,324,1.0,2.0,95,0.04,,,0.42,62,Wunderground v.1.15,2013-05-29 15:11:00,
2013-05-29 08:16:00,51.7,50.0,29.68,NNW,333,2.0,4.0,94,0.00,,,0.42,76,Wunderground v.1.15,2013-05-29 15:16:00,
2013-05-29 08:22:00,51.7,50.0,29.68,NNE,24,2.0,4.0,94,0.00,,,0.42,114,Wunderground v.1.15,2013-05-29 15:22:00,
2013-05-29 08:27:00,51.9,50.2,29.68,NNW,342,3.0,4.0,94,0.00,,,0.42,123,Wunderground v.1.15,2013-05-29 15:27:00,
2013-05-29 08:32:00,52.0,50.3,29.68,NNW,342,2.0,2.0,94,0.00,,,0.42,158,Wunderground v.1.15,2013-05-29 15:32:00,
2013-05-29 08:37:00,52.2,50.5,29.69,NW,326,1.0,5.0,94,0.00,,,0.42,200,Wunderground v.1.15,2013-05-29 15:37:00,
2013-05-29 08:42:00,52.5,49.9,29.69,NW,317,1.0,5.0,91,0.00,,,0.42,197,Wunderground v.1.15,2013-05-29 15:42:00,
2013-05-29 08:48:00,52.6,50.6,29.69,NW,323,2.0,5.0,93,0.00,,,0.42,146,Wunderground v.1.15,2013-05-29 15:48:00,
2013-05-29 08:53:00,52.8,50.8,29.70,NW,323,1.0,3.0,93,0.00,,,0.42,141,Wunderground v.1.15,2013-05-29 15:53:00,
2013-05-29 08:58:00,52.9,50.6,29.70,NW,309,2.0,4.0,92,0.00,,,0.42,155,Wunderground v.1.15,2013-05-29 15:58:00,
2013-05-29 09:03:00,52.9,50.3,29.71,NW,309,2.0,2.0,91,0.00,,,0.42,132,Wunderground v.1.15,2013-05-29 16:03:00,
2013-05-29 09:08:00,53.1,50.5,29.71,NW,309,1.0,2.0,91,0.00,,,0.42,144,Wunderground v.1.15,2013-05-29 16:08:00,
2013-05-29 09:14:00,53.3,50.7,29.71,West,275,2.0,3.0,91,0.00,,,0.42,148,Wunderground v.1.15,2013-05-29 16:14:00,
2013-05-29 09:19:00,53.3,50.7,29.71,West,275,2.0,4.0,91,0.00,,,0.42,130,Wunderground v.1.15,2013-05-29 16:19:00,
2013-05-29 09:24:00,53.5,50.9,29.72,West,275,2.0,2.0,91,0.00,,,0.42,137,Wunderground v.1.15,2013-05-29 16:24:00,
2013-05-29 09:29:00,53.5,50.9,29.72,West,275,2.0,3.0,91,0.00,,,0.42,139,Wunderground v.1.15,2013-05-29 16:29:00,
2013-05-29 09:34:00,53.6,51.3,29.72,WNW,282,2.0,3.0,92,0.00,,,0.42,185,Wunderground v.1.15,2013-05-29 16:34:00,
2013-05-29 09:40:00,53.8,51.2,29.73,WNW,282,2.0,3.0,91,0.00,,,0.42,230,Wunderground v.1.15,2013-05-29 16:40:00,
2013-05-29 09:45:00,53.9,51.0,29.73,WNW,287,3.0,6.0,90,0.00,,,0.42,199,Wunderground v.1.15,2013-05-29 16:45:00,
2013-05-29 09:50:00,53.9,51.3,29.73,West,268,3.0,3.0,91,0.00,,,0.42,325,Wunderground v.1.15,2013-05-29 16:50:00,
2013-05-29 09:55:00,54.1,50.9,29.73,WNW,290,3.0,5.0,89,0.00,,,0.42,316,Wunderground v.1.15,2013-05-29 16:55:00,
2013-05-29 10:00:00,54.4,51.2,29.74,NW,313,3.0,3.0,89,0.00,,,0.42,462,Wunderground v.1.15,2013-05-29 17:00:00,
2013-05-29 10:05:00,54.7,50.9,29.74,WSW,240,3.0,5.0,87,0.00,,,0.42,336,Wunderground v.1.15,2013-05-29 17:05:00,
2013-05-29 10:11:00,55.0,50.9,29.74,WNW,286,3.0,4.0,86,0.00,,,0.42,190,Wunderground v.1.15,2013-05-29 17:11:00,
2013-05-29 10:16:00,54.8,50.7,29.75,WNW,292,3.0,4.0,86,0.00,,,0.42,197,Wunderground v.1.15,2013-05-29 17:16:00,
2013-05-29 10:21:00,54.8,50.7,29.75,WSW,254,4.0,4.0,86,0.00,,,0.42,248,Wunderground v.1.15,2013-05-29 17:21:00,
2013-05-29 10:26:00,54.5,50.4,29.76,West,265,4.0,4.0,86,0.00,,,0.42,251,Wunderground v.1.15,2013-05-29 17:26:00,
2013-05-29 10:31:00,54.4,50.6,29.76,WSW,241,3.0,4.0,87,0.00,,,0.42,339,Wunderground v.1.15,2013-05-29 17:31:00,
2013-05-29 10:36:00,54.7,50.6,29.76,WNW,295,3.0,6.0,86,0.00,,,0.42,392,Wunderground v.1.15,2013-05-29 17:36:00,
2013-05-29 10:41:00,54.8,50.7,29.76,WNW,295,3.0,3.0,86,0.00,,,0.42,380,Wunderground v.1.15,2013-05-29 17:41:00,
2013-05-29 10:46:00,55.3,51.2,29.76,WSW,250,2.0,5.0,86,0.00,,,0.42,313,Wunderground v.1.15,2013-05-29 17:46:00,
2013-05-29 10:51:00,55.1,50.7,29.77,WSW,250,2.0,2.0,85,0.00,,,0.42,253,Wunderground v.1.15,2013-05-29 17:51:00,
2013-05-29 10:56:00,55.3,50.9,29.77,SW,223,2.0,4.0,85,0.00,,,0.42,216,Wunderground v.1.15,2013-05-29 17:56:00,
2013-05-29 11:02:00,54.7,50.9,29.78,SSW,213,3.0,6.0,87,0.00,,,0.42,190,Wunderground v.1.15,2013-05-29 18:02:00,
2013-05-29 11:07:00,54.5,51.6,29.78,SW,219,2.0,6.0,90,0.00,,,0.42,325,Wunderground v.1.15,2013-05-29 18:07:00,
2013-05-29 11:12:00,54.5,51.6,29.79,SW,219,2.0,3.0,90,0.00,,,0.42,302,Wunderground v.1.15,2013-05-29 18:12:00,
2013-05-29 11:17:00,54.4,51.5,29.79,SW,219,2.0,5.0,90,0.00,,,0.42,250,Wunderground v.1.15,2013-05-29 18:17:00,
2013-05-29 11:22:00,54.5,51.6,29.79,SW,219,2.0,2.0,90,0.00,,,0.42,355,Wunderground v.1.15,2013-05-29 18:22:00,
2013-05-29 11:28:00,54.5,51.6,29.79,SW,219,1.0,2.0,90,0.00,,,0.42,385,Wunderground v.1.15,2013-05-29 18:28:00,
2013-05-29 11:33:00,54.8,51.3,29.80,SSW,201,1.0,3.0,88,0.00,,,0.42,332,Wunderground v.1.15,2013-05-29 18:33:00,
2013-05-29 11:38:00,55.1,51.9,29.80,SSW,201,1.0,3.0,89,0.00,,,0.42,547,Wunderground v.1.15,2013-05-29 18:38:00,
2013-05-29 11:43:00,55.7,52.5,29.80,SSW,201,1.0,3.0,89,0.00,,,0.42,524,Wunderground v.1.15,2013-05-29 18:43:00,
2013-05-29 11:48:00,55.9,51.5,29.80,SSW,194,1.0,3.0,85,0.00,,,0.42,380,Wunderground v.1.15,2013-05-29 18:48:00,
2013-05-29 11:54:00,56.0,51.6,29.81,SSW,198,1.0,2.0,85,0.00,,,0.42,246,Wunderground v.1.15,2013-05-29 18:54:00,
2013-05-29 11:59:00,56.3,52.2,29.81,SSW,198,1.0,3.0,86,0.00,,,0.43,162,Wunderground v.1.15,2013-05-29 18:59:00,
2013-05-29 12:04:00,56.5,52.0,29.81,SW,224,1.0,6.0,85,0.33,,,0.47,227,Wunderground v.1.15,2013-05-29 19:04:00,
2013-05-29 12:09:00,56.3,52.2,29.81,SW,224,1.0,6.0,86,0.11,,,0.47,359,Wunderground v.1.15,2013-05-29 19:09:00,
2013-05-29 12:14:00,56.2,52.4,29.82,West,277,2.0,10.0,87,0.06,,,0.47,504,Wunderground v.1.15,2013-05-29 19:14:00,
2013-05-29 12:20:00,56.9,53.1,29.82,WSW,240,5.0,10.0,87,0.04,,,0.47,844,Wunderground v.1.15,2013-05-29 19:20:00,
2013-05-29 12:25:00,56.6,49.8,29.83,WSW,250,7.0,13.0,78,0.00,,,0.47,336,Wunderground v.1.15,2013-05-29 19:25:00,
2013-05-29 12:30:00,56.2,49.4,29.83,SW,229,8.0,8.0,78,0.00,,,0.47,251,Wunderground v.1.15,2013-05-29 19:30:00,
2013-05-29 12:35:00,55.7,49.6,29.83,West,278,8.0,12.0,80,0.00,,,0.47,251,Wunderground v.1.15,2013-05-29 19:35:00,
2013-05-29 12:40:00,55.6,49.9,29.84,WNW,284,8.0,8.0,81,0.00,,,0.47,260,Wunderground v.1.15,2013-05-29 19:40:00,
2013-05-29 12:46:00,55.4,49.7,29.84,West,262,6.0,12.0,81,0.00,,,0.47,315,Wunderground v.1.15,2013-05-29 19:46:00,
2013-05-29 12:51:00,55.7,50.0,29.84,West,267,6.0,6.0,81,0.00,,,0.47,287,Wunderground v.1.15,2013-05-29 19:51:00,
2013-05-29 12:56:00,55.7,49.3,29.84,WNW,286,6.0,10.0,79,0.00,,,0.47,285,Wunderground v.1.15,2013-05-29 19:56:00,
2013-05-29 13:01:00,55.9,49.8,29.84,West,277,6.0,6.0,80,0.00,,,0.47,301,Wunderground v.1.15,2013-05-29 20:01:00,
2013-05-29 13:06:00,56.0,49.2,29.84,West,259,6.0,9.0,78,0.00,,,0.47,338,Wunderground v.1.15,2013-05-29 20:06:00,
2013-05-29 13:12:00,56.3,48.8,29.84,SW,231,7.0,10.0,76,0.00,,,0.47,406,Wunderground v.1.15,2013-05-29 20:12:00,
2013-05-29 13:17:00,56.7,48.5,29.84,West,273,7.0,11.0,74,0.00,,,0.47,362,Wunderground v.1.15,2013-05-29 20:17:00,
2013-05-29 13:22:00,57.0,49.2,29.85,WSW,257,6.0,8.0,75,0.00,,,0.47,376,Wunderground v.1.15,2013-05-29 20:22:00,
2013-05-29 13:27:00,57.2,47.5,29.85,West,279,7.0,10.0,70,0.00,,,0.47,360,Wunderground v.1.15,2013-05-29 20:27:00,
2013-05-29 13:32:00,57.2,47.9,29.85,WNW,283,9.0,11.0,71,0.00,,,0.47,417,Wunderground v.1.15,2013-05-29 20:32:00,
2013-05-29 13:38:00,57.3,48.0,29.85,West,259,8.0,11.0,71,0.00,,,0.47,343,Wunderground v.1.15,2013-05-29 20:38:00,
2013-05-29 13:43:00,57.6,48.3,29.85,WSW,248,7.0,8.0,71,0.00,,,0.47,415,Wunderground v.1.15,2013-05-29 20:43:00,
2013-05-29 13:48:00,57.8,47.7,29.86,WNW,286,7.0,10.0,69,0.00,,,0.47,452,Wunderground v.1.15,2013-05-29 20:48:00,
2013-05-29 13:53:00,57.8,47.7,29.86,SW,223,7.0,10.0,69,0.00,,,0.47,392,Wunderground v.1.15,2013-05-29 20:53:00,
2013-05-29 13:58:00,58.1,48.0,29.86,SW,215,6.0,10.0,69,0.00,,,0.47,403,Wunderground v.1.15,2013-05-29 20:58:00,
2013-05-29 14:04:00,58.1,47.2,29.86,West,264,5.0,13.0,67,0.00,,,0.47,439,Wunderground v.1.15,2013-05-29 21:04:00,
2013-05-29 14:09:00,58.0,46.3,29.87,West,267,7.0,13.0,65,0.00,,,0.47,466,Wunderground v.1.15,2013-05-29 21:09:00,
2013-05-29 14:14:00,58.3,47.4,29.87,West,269,8.0,10.0,67,0.00,,,0.47,454,Wunderground v.1.15,2013-05-29 21:14:00,
2013-05-29 14:19:00,58.9,48.7,29.87,SW,223,6.0,10.0,69,0.00,,,0.47,561,Wunderground v.1.15,2013-05-29 21:19:00,
2013-05-29 14:24:00,59.5,46.9,29.87,West,261,6.0,10.0,63,0.00,,,0.47,561,Wunderground v.1.15,2013-05-29 21:24:00,
2013-05-29 14:30:00,59.0,46.8,29.88,SW,224,9.0,17.0,64,0.00,,,0.47,408,Wunderground v.1.15,2013-05-29 21:30:00,
2013-05-29 14:35:00,59.3,49.1,29.88,SW,222,9.0,17.0,69,0.00,,,0.47,772,Wunderground v.1.15,2013-05-29 21:35:00,
2013-05-29 14:40:00,58.3,48.2,29.88,West,272,8.0,8.0,69,0.00,,,0.47,664,Wunderground v.1.15,2013-05-29 21:40:00,
2013-05-29 14:45:00,58.3,48.6,29.88,WSW,241,8.0,10.0,70,0.00,,,0.47,425,Wunderground v.1.15,2013-05-29 21:45:00,
2013-05-29 14:50:00,58.1,48.0,29.88,West,273,7.0,8.0,69,0.00,,,0.47,438,Wunderground v.1.15,2013-05-29 21:50:00,
2013-05-29 14:56:00,58.1,46.8,29.89,WNW,294,8.0,11.0,66,0.00,,,0.47,647,Wunderground v.1.15,2013-05-29 21:56:00,
2013-05-29 15:01:00,58.4,47.1,29.89,WNW,302,10.0,16.0,66,0.00,,,0.47,675,Wunderground v.1.15,2013-05-29 22:01:00,
2013-05-29 15:06:00,59.3,46.7,29.88,WSW,246,9.0,16.0,63,0.00,,,0.47,749,Wunderground v.1.15,2013-05-29 22:06:00,
2013-05-29 15:11:00,59.6,46.6,29.88,West,279,9.0,17.0,62,0.00,,,0.47,661,Wunderground v.1.15,2013-05-29 22:11:00,
2013-05-29 15:16:00,59.5,47.3,29.89,WNW,284,9.0,17.0,64,0.00,,,0.47,410,Wunderground v.1.15,2013-05-29 22:16:00,
2013-05-29 15:22:00,59.0,47.2,29.89,NW,309,8.0,11.0,65,0.00,,,0.47,480,Wunderground v.1.15,2013-05-29 22:22:00,
2013-05-29 15:27:00,59.0,46.8,29.89,WSW,257,8.0,12.0,64,0.00,,,0.47,429,Wunderground v.1.15,2013-05-29 22:27:00,
2013-05-29 15:32:00,59.2,47.0,29.89,SW,233,8.0,9.0,64,0.00,,,0.47,457,Wunderground v.1.15,2013-05-29 22:32:00,
2013-05-29 15:37:00,58.7,47.0,29.90,WSW,246,9.0,12.0,65,0.00,,,0.47,552,Wunderground v.1.15,2013-05-29 22:37:00,
2013-05-29 15:42:00,58.6,47.3,29.90,West,261,9.0,11.0,66,0.00,,,0.47,315,Wunderground v.1.15,2013-05-29 22:42:00,
2013-05-29 15:48:00,57.8,46.1,29.90,SW,215,9.0,13.0,65,0.00,,,0.47,339,Wunderground v.1.15,2013-05-29 22:48:00,
2013-05-29 15:53:00,58.0,46.3,29.91,WSW,250,9.0,10.0,65,0.00,,,0.47,425,Wunderground v.1.15,2013-05-29 22:53:00,
2013-05-29 15:58:00,58.0,46.3,29.90,SW,228,9.0,18.0,65,0.00,,,0.47,501,Wunderground v.1.15,2013-05-29 22:58:00,
2013-05-29 16:03:00,58.4,47.1,29.91,WSW,244,10.0,15.0,66,0.00,,,0.47,422,Wunderground v.1.15,2013-05-29 23:03:00,
2013-05-29 16:08:00,58.3,47.0,29.91,SW,221,9.0,15.0,66,0.00,,,0.47,329,Wunderground v.1.15,2013-05-29 23:08:00,
2013-05-29 16:14:00,58.3,47.0,29.91,West,261,8.0,12.0,66,0.00,,,0.47,301,Wunderground v.1.15,2013-05-29 23:14:00,
2013-05-29 16:19:00,58.3,47.0,29.91,WSW,252,8.0,12.0,66,0.00,,,0.47,399,Wunderground v.1.15,2013-05-29 23:19:00,
2013-05-29 16:24:00,58.3,47.0,29.91,SW,235,6.0,15.0,66,0.00,,,0.47,383,Wunderground v.1.15,2013-05-29 23:24:00,
2013-05-29 16:29:00,58.6,47.3,29.91,SSW,197,6.0,15.0,66,0.00,,,0.47,278,Wunderground v.1.15,2013-05-29 23:29:00,
2013-05-29 16:34:00,58.4,47.1,29.91,WSW,254,7.0,10.0,66,0.00,,,0.47,294,Wunderground v.1.15,2013-05-29 23:34:00,
2013-05-29 16:39:00,58.3,47.0,29.91,WSW,247,7.0,12.0,66,0.00,,,0.47,304,Wunderground v.1.15,2013-05-29 23:39:00,
2013-05-29 16:44:00,58.3,46.2,29.91,SW,223,9.0,13.0,64,0.00,,,0.47,315,Wunderground v.1.15,2013-05-29 23:44:00,
2013-05-29 16:49:00,58.3,45.8,29.91,WSW,256,8.0,13.0,63,0.00,,,0.47,374,Wunderground v.1.15,2013-05-29 23:49:00,
2013-05-29 16:54:00,58.4,46.3,29.91,West,269,7.0,11.0,64,0.00,,,0.47,294,Wunderground v.1.15,2013-05-29 23:54:00,
2013-05-29 16:59:00,58.3,46.6,29.92,WSW,250,8.0,17.0,65,0.00,,,0.47,396,Wunderground v.1.15,2013-05-29 23:59:00,
2013-05-29 17:04:00,58.0,45.9,29.92,WSW,252,9.0,19.0,64,0.00,,,0.47,267,Wunderground v.1.15,2013-05-30 00:04:00,
2013-05-29 17:10:00,58.0,46.3,29.92,SSW,207,8.0,10.0,65,0.00,,,0.47,360,Wunderground v.1.15,2013-05-30 00:10:00,
2013-05-29 17:15:00,58.3,46.6,29.92,West,274,7.0,10.0,65,0.00,,,0.47,311,Wunderground v.1.15,2013-05-30 00:15:00,
2013-05-29 17:20:00,58.7,46.5,29.92,West,264,5.0,5.0,64,0.00,,,0.47,396,Wunderground v.1.15,2013-05-30 00:20:00,
2013-05-29 17:25:00,58.7,45.7,29.92,West,273,6.0,11.0,62,0.00,,,0.47,230,Wunderground v.1.15,2013-05-30 00:25:00,
2013-05-29 17:30:00,59.2,46.6,29.92,West,261,6.0,6.0,63,0.00,,,0.47,643,Wunderground v.1.15,2013-05-30 00:30:00,
2013-05-29 17:36:00,59.8,46.7,29.92,WNW,286,4.0,6.0,62,0.00,,,0.47,278,Wunderground v.1.15,2013-05-30 00:36:00,
2013-05-29 17:41:00,59.6,46.6,29.92,SW,228,5.0,11.0,62,0.00,,,0.47,615,Wunderground v.1.15,2013-05-30 00:41:00,
2013-05-29 17:46:00,59.2,45.8,29.92,West,269,6.0,11.0,61,0.00,,,0.47,265,Wunderground v.1.15,2013-05-30 00:46:00,
2013-05-29 17:51:00,59.3,46.3,29.92,West,263,6.0,10.0,62,0.00,,,0.47,492,Wunderground v.1.15,2013-05-30 00:51:00,
2013-05-29 17:56:00,59.3,46.3,29.92,WSW,242,7.0,10.0,62,0.00,,,0.47,464,Wunderground v.1.15,2013-05-30 00:56:00,
2013-05-29 18:02:00,59.5,46.9,29.92,SW,225,6.0,16.0,63,0.00,,,0.47,387,Wunderground v.1.15,2013-05-30 01:02:00,
2013-05-29 18:07:00,59.2,47.0,29.92,WSW,244,6.0,16.0,64,0.00,,,0.47,163,Wunderground v.1.15,2013-05-30 01:07:00,
2013-05-29 18:12:00,58.7,46.5,29.92,West,266,6.0,6.0,64,0.00,,,0.47,149,Wunderground v.1.15,2013-05-30 01:12:00,
2013-05-29 18:17:00,58.1,46.4,29.92,West,263,6.0,9.0,65,0.00,,,0.47,155,Wunderground v.1.15,2013-05-30 01:17:00,
2013-05-29 18:22:00,58.1,46.8,29.92,WSW,243,6.0,7.0,66,0.00,,,0.47,155,Wunderground v.1.15,2013-05-30 01:22:00,
2013-05-29 18:28:00,58.0,46.7,29.92,WNW,286,6.0,7.0,66,0.00,,,0.47,118,Wunderground v.1.15,2013-05-30 01:28:00,
2013-05-29 18:33:00,57.6,46.7,29.92,WSW,250,6.0,8.0,67,0.00,,,0.47,100,Wunderground v.1.15,2013-05-30 01:33:00,
2013-05-29 18:38:00,57.6,46.3,29.93,WSW,241,6.0,8.0,66,0.00,,,0.47,102,Wunderground v.1.15,2013-05-30 01:38:00,
2013-05-29 18:43:00,57.3,46.4,29.93,WSW,249,5.0,7.0,67,0.00,,,0.47,111,Wunderground v.1.15,2013-05-30 01:43:00,
2013-05-29 18:48:00,57.3,46.0,29.93,WSW,243,6.0,7.0,66,0.00,,,0.47,107,Wunderground v.1.15,2013-05-30 01:48:00,
2013-05-29 18:54:00,57.2,46.7,29.93,SW,228,6.0,9.0,68,0.00,,,0.47,98,Wunderground v.1.15,2013-05-30 01:54:00,
2013-05-29 18:59:00,57.2,46.7,29.93,SSW,213,6.0,9.0,68,0.00,,,0.47,91,Wunderground v.1.15,2013-05-30 01:59:00,
2013-05-29 19:04:00,57.2,46.7,29.93,SW,227,5.0,13.0,68,0.00,,,0.47,74,Wunderground v.1.15,2013-05-30 02:04:00,
2013-05-29 19:09:00,57.2,46.7,29.93,SW,230,4.0,13.0,68,0.00,,,0.47,74,Wunderground v.1.15,2013-05-30 02:09:00,
2013-05-29 19:14:00,57.0,46.5,29.93,WSW,253,5.0,7.0,68,0.00,,,0.47,67,Wunderground v.1.15,2013-05-30 02:14:00,
2013-05-29 19:20:00,56.7,46.3,29.93,WSW,237,7.0,9.0,68,0.00,,,0.47,47,Wunderground v.1.15,2013-05-30 02:20:00,
2013-05-29 19:25:00,56.6,46.5,29.93,WNW,290,7.0,9.0,69,0.00,,,0.47,40,Wunderground v.1.15,2013-05-30 02:25:00,
2013-05-29 19:30:00,56.6,46.9,29.94,West,261,6.0,6.0,70,0.00,,,0.47,33,Wunderground v.1.15,2013-05-30 02:30:00,
2013-05-29 19:35:00,56.5,46.8,29.94,SW,225,5.0,9.0,70,0.00,,,0.47,28,Wunderground v.1.15,2013-05-30 02:35:00,
2013-05-29 19:40:00,56.5,47.2,29.94,West,259,4.0,4.0,71,0.00,,,0.47,32,Wunderground v.1.15,2013-05-30 02:40:00,
2013-05-29 19:46:00,56.3,47.0,29.94,SW,232,4.0,7.0,71,0.00,,,0.47,39,Wunderground v.1.15,2013-05-30 02:46:00,
2013-05-29 19:51:00,56.3,47.4,29.94,SW,232,4.0,8.0,72,0.00,,,0.47,47,Wunderground v.1.15,2013-05-30 02:51:00,
2013-05-29 19:56:00,56.2,47.3,29.94,WSW,256,4.0,8.0,72,0.00,,,0.47,58,Wunderground v.1.15,2013-05-30 02:56:00,
2013-05-29 20:01:00,56.0,47.5,29.94,SW,217,4.0,5.0,73,0.00,,,0.47,40,Wunderground v.1.15,2013-05-30 03:01:00,
2013-05-29 20:06:00,56.0,47.8,29.94,SW,224,3.0,11.0,74,0.00,,,0.47,26,Wunderground v.1.15,2013-05-30 03:06:00,
2013-05-29 20:12:00,55.9,47.7,29.94,SW,231,3.0,3.0,74,0.00,,,0.47,19,Wunderground v.1.15,2013-05-30 03:12:00,
2013-05-29 20:17:00,55.9,48.1,29.95,SW,223,3.0,5.0,75,0.00,,,0.47,16,Wunderground v.1.15,2013-05-30 03:17:00,
2013-05-29 20:22:00,55.7,47.9,29.95,SW,223,3.0,3.0,75,0.00,,,0.47,14,Wunderground v.1.15,2013-05-30 03:22:00,
2013-05-29 20:27:00,55.4,48.0,29.95,SW,214,4.0,6.0,76,0.00,,,0.47,18,Wunderground v.1.15,2013-05-30 03:27:00,
2013-05-29 20:32:00,55.0,48.9,29.95,South,184,3.0,5.0,80,0.00,,,0.47,32,Wunderground v.1.15,2013-05-30 03:32:00,
2013-05-29 20:38:00,54.4,49.0,29.95,SSW,211,3.0,5.0,82,0.00,,,0.47,21,Wunderground v.1.15,2013-05-30 03:38:00,
2013-05-29 20:43:00,54.1,49.1,29.95,SW,228,3.0,4.0,83,0.00,,,0.47,12,Wunderground v.1.15,2013-05-30 03:43:00,
2013-05-29 20:48:00,53.8,49.1,29.95,SW,228,1.0,4.0,84,0.00,,,0.47,7,Wunderground v.1.15,2013-05-30 03:48:00,
2013-05-29 20:53:00,53.5,49.1,29.95,SW,228,0.0,2.0,85,0.00,,,0.47,0,Wunderground v.1.15,2013-05-30 03:53:00,
2013-05-29 20:58:00,53.3,49.2,29.95,SW,228,0.0,2.0,86,0.00,,,0.47,0,Wunderground v.1.15,2013-05-30 03:58:00,
2013-05-29 21:01:00,53.3,49.2,29.96,SW,228,0.0,8.0,86,0.00,,,0.47,0,Wunderground v.1.15,2013-05-30 04:01:00,
2013-05-29 21:02:00,53.3,49.2,29.96,SW,228,0.0,8.0,86,0.00,,,0.47,0,Wunderground v.1.15,2013-05-30 04:02:00,
2013-05-29 21:03:00,53.3,49.2,29.96,SW,228,0.0,8.0,86,0.00,,,0.47,0,Wunderground v.1.15,2013-05-30 04:03:00,
2013-05-29 21:08:00,53.2,49.1,29.96,SW,228,0.0,8.0,86,0.00,,,0.47,0,Wunderground v.1.15,2013-05-30 04:08:00,
2013-05-29 21:13:00,53.1,49.0,29.96,SW,228,0.0,2.0,86,0.00,,,0.47,0,Wunderground v.1.15,2013-05-30 04:13:00,
2013-05-29 21:14:00,53.1,49.0,29.96,SW,228,0.0,2.0,86,0.00,,,0.47,0,Wunderground v.1.15,2013-05-30 04:14:00,
2013-05-29 21:19:00,52.9,49.1,29.97,SW,228,1.0,3.0,87,0.00,,,0.48,0,Wunderground v.1.15,2013-05-30 04:19:00,
2013-05-29 21:24:00,52.9,49.1,29.97,WSW,240,2.0,5.0,87,0.00,,,0.48,0,Wunderground v.1.15,2013-05-30 04:24:00,
2013-05-29 21:30:00,52.8,49.3,29.97,SW,231,3.0,3.0,88,0.06,,,0.49,0,Wunderground v.1.15,2013-05-30 04:30:00,
2013-05-29 21:35:00,52.8,49.3,29.97,SSW,211,2.0,4.0,88,0.06,,,0.49,0,Wunderground v.1.15,2013-05-30 04:35:00,
2013-05-29 21:40:00,52.6,49.1,29.97,SSW,211,1.0,1.0,88,0.04,,,0.49,0,Wunderground v.1.15,2013-05-30 04:40:00,
2013-05-29 21:45:00,52.5,49.4,29.98,SSW,211,0.0,1.0,89,0.00,,,0.49,0,Wunderground v.1.15,2013-05-30 04:45:00,
2013-05-29 21:50:00,52.3,49.2,29.98,SSW,211,0.0,0.0,89,0.00,,,0.49,0,Wunderground v.1.15,2013-05-30 04:50:00,
2013-05-29 21:55:00,52.3,49.2,29.98,SSW,211,1.0,2.0,89,0.00,,,0.49,0,Wunderground v.1.15,2013-05-30 04:55:00,
2013-05-29 22:00:00,52.3,48.9,29.98,WSW,238,1.0,1.0,88,0.00,,,0.49,0,Wunderground v.1.15,2013-05-30 05:00:00,
2013-05-29 22:05:00,52.3,48.9,29.99,WSW,238,1.0,1.0,88,0.00,,,0.49,0,Wunderground v.1.15,2013-05-30 05:05:00,
2013-05-29 22:11:00,52.0,48.6,29.99,WSW,238,0.0,0.0,88,0.00,,,0.49,0,Wunderground v.1.15,2013-05-30 05:11:00,
2013-05-29 22:16:00,51.9,48.5,29.99,WSW,238,0.0,0.0,88,0.00,,,0.49,0,Wunderground v.1.15,2013-05-30 05:16:00,
2013-05-29 22:21:00,51.6,48.2,29.99,WSW,238,0.0,0.0,88,0.00,,,0.49,0,Wunderground v.1.15,2013-05-30 05:21:00,
2013-05-29 22:26:00,51.4,48.3,29.99,WSW,238,0.0,0.0,89,0.00,,,0.49,0,Wunderground v.1.15,2013-05-30 05:26:00,
2013-05-29 22:31:00,51.1,48.3,29.99,WSW,238,0.0,0.0,90,0.00,,,0.49,0,Wunderground v.1.15,2013-05-30 05:31:00,
2013-05-29 22:36:00,51.0,48.5,29.99,WSW,238,0.0,1.0,91,0.00,,,0.49,0,Wunderground v.1.15,2013-05-30 05:36:00,
2013-05-29 22:41:00,50.8,48.3,30.00,WSW,238,0.0,0.0,91,0.00,,,0.49,0,Wunderground v.1.15,2013-05-30 05:41:00,
2013-05-29 22:46:00,50.7,48.2,30.00,WSW,238,0.0,1.0,91,0.00,,,0.49,0,Wunderground v.1.15,2013-05-30 05:46:00,
2013-05-29 22:52:00,50.5,48.0,30.00,WSW,238,0.0,0.0,91,0.00,,,0.49,0,Wunderground v.1.15,2013-05-30 05:52:00,
2013-05-29 22:57:00,50.7,48.2,30.00,WSW,238,0.0,1.0,91,0.00,,,0.49,0,Wunderground v.1.15,2013-05-30 05:57:00,
2013-05-29 23:02:00,50.8,48.3,30.01,WSW,238,1.0,3.0,91,0.00,,,0.49,0,Wunderground v.1.15,2013-05-30 06:02:00,
2013-05-29 23:07:00,50.7,47.9,30.01,WSW,238,1.0,3.0,90,0.00,,,0.49,0,Wunderground v.1.15,2013-05-30 06:07:00,
2013-05-29 23:12:00,50.7,47.6,30.01,WSW,238,0.0,1.0,89,0.00,,,0.49,0,Wunderground v.1.15,2013-05-30 06:12:00,
2013-05-29 23:18:00,51.0,47.6,30.01,West,271,1.0,4.0,88,0.00,,,0.49,0,Wunderground v.1.15,2013-05-30 06:18:00,
2013-05-29 23:23:00,51.3,47.3,30.01,WSW,244,2.0,2.0,86,0.00,,,0.49,0,Wunderground v.1.15,2013-05-30 06:23:00,
2013-05-29 23:28:00,51.6,47.5,30.02,WSW,244,2.0,3.0,86,0.00,,,0.49,0,Wunderground v.1.15,2013-05-30 06:28:00,
2013-05-29 23:33:00,51.3,47.6,30.02,WSW,245,2.0,2.0,87,0.00,,,0.49,0,Wunderground v.1.15,2013-05-30 06:33:00,
2013-05-29 23:38:00,51.1,47.4,30.02,WSW,245,2.0,2.0,87,0.00,,,0.49,0,Wunderground v.1.15,2013-05-30 06:38:00,
2013-05-29 23:44:00,51.0,47.6,30.02,WSW,245,0.0,1.0,88,0.00,,,0.49,0,Wunderground v.1.15,2013-05-30 06:44:00,
2013-05-29 23:49:00,50.7,47.3,30.03,WSW,245,0.0,2.0,88,0.00,,,0.49,0,Wunderground v.1.15,2013-05-30 06:49:00,
2013-05-29 23:54:00,50.5,47.4,30.03,WSW,245,0.0,0.0,89,0.00,,,0.49,0,Wunderground v.1.15,2013-05-30 06:54:00,
2013-05-29 23:59:00,50.5,47.4,30.03,WSW,245,0.0,0.0,89,0.00,,,0.49,0,Wunderground v.1.15,2013-05-30 06:59:00,